首页
METAR-TAF:

METAR-TAF

机场 :

Lahr, 德国

纬度: 48-22-09N, 经度: 007-49-40E, 海拔: 156米

当前天气观测

该预报发布于20分钟前的09:50 UTC
风速8节,风向,在西转西南之间变化
温度 28°C
湿度 40%
气压 1016 hPa
能见度10公里或以上
1500米以下无云,无积雨云

METAR: EDTL 090950Z 19008KT 100V240 CAVOK 28/13 Q1016

时间: 12:10 (10:10 UTC)

预报

该预报发布于2小时和10分钟前的08:00 UTC
预报有效从09日的 09点(UTC)到 09日的 18点(UTC)
风速7节,风向南转西南
能见度10公里或以上
1500米以下无云,无积雨云
成为
从 09日的 12点(UTC)到 09日的 14点(UTC)
风速12节,风向西

TAF: EDTL 090800Z 0909/0918 21007KT CAVOK BECMG 0912/0914 27012KT

超过4000个机场的气象观测和天气预报(METAR&TAF报告)。

可查询的气象台以黄色和红色小点在地图上表示。

将鼠标移到小点上方,可查看气象台名称。

然后点击查看天气观测和预报。

如需切换地图:点击带黑十字的绿色按钮放大地图;点击带横线的绿色按钮缩小地图;或者点击绿色箭头查看邻近地区的地图。


METAR-TAF: